Time;durP1;ratioP1;P1;durP2;ratioP2;P2;SDS_P1;SDS_P2;PMS_P1;PMS_P2;Temp;Humidity;BMP_temperature;BMP_pressure;BME280_temperature;BME280_humidity;BME280_pressure;Samples;Min_cycle;Max_cycle;Signal;HPM_P1;HPM_P2
2023/06/20 00:00:49;;;;;;;5.03;4.63;;;;;;;;;;5103740;28;20201;-79
2023/06/20 00:03:16;;;;;;;5.10;4.70;;;;;;;;;;5107307;28;20199;-80
2023/06/20 00:05:44;;;;;;;5.17;4.67;;;;;;;;;;5111465;28;20203;-79
2023/06/20 00:08:11;;;;;;;4.77;4.37;;;;;;;;;;5109604;28;20195;-79
2023/06/20 00:10:37;;;;;;;6.57;4.53;;;;;;;;;;5100009;28;20207;-80
2023/06/20 00:13:04;;;;;;;4.87;4.47;;;;;;;;;;5109120;28;20355;-80
2023/06/20 00:15:31;;;;;;;6.67;4.80;;;;;;;;;;5090788;28;20211;-79
2023/06/20 00:18:00;;;;;;;5.63;4.50;;;;;;;;;;5104778;28;20409;-80
2023/06/20 00:20:27;;;;;;;5.93;4.93;;;;;;;;;;5100465;28;20720;-80
2023/06/20 00:22:55;;;;;;;5.57;5.00;;;;;;;;;;5107828;28;20747;-80
2023/06/20 00:25:22;;;;;;;5.70;5.10;;;;;;;;;;5091176;28;20574;-80
2023/06/20 00:27:48;;;;;;;5.97;4.77;;;;;;;;;;5107909;28;20614;-80
2023/06/20 00:30:15;;;;;;;5.73;5.30;;;;;;;;;;5101097;28;20200;-80
2023/06/20 00:32:42;;;;;;;6.40;5.77;;;;;;;;;;5104459;28;20585;-79
2023/06/20 00:35:09;;;;;;;5.33;4.83;;;;;;;;;;5101324;28;20264;-79
2023/06/20 00:37:37;;;;;;;5.30;4.80;;;;;;;;;;5093038;28;20204;-80
2023/06/20 00:40:07;;;;;;;5.63;5.20;;;;;;;;;;5102030;28;20223;-80
2023/06/20 00:42:35;;;;;;;5.37;4.97;;;;;;;;;;5110757;28;20250;-79
2023/06/20 00:45:02;;;;;;;4.47;4.07;;;;;;;;;;5081172;28;20253;-80
2023/06/20 00:47:28;;;;;;;4.90;4.43;;;;;;;;;;5095978;28;20674;-79
2023/06/20 00:49:56;;;;;;;7.50;4.40;;;;;;;;;;5098756;28;20224;-79
2023/06/20 00:52:23;;;;;;;5.53;4.47;;;;;;;;;;5104478;28;20208;-81
2023/06/20 00:54:50;;;;;;;4.80;4.40;;;;;;;;;;5103210;28;20211;-79
2023/06/20 00:57:20;;;;;;;4.07;3.77;;;;;;;;;;5097358;28;20203;-79
2023/06/20 00:59:47;;;;;;;5.03;4.53;;;;;;;;;;5097768;28;20318;-79
2023/06/20 01:02:14;;;;;;;4.27;3.93;;;;;;;;;;5090191;28;20584;-79
2023/06/20 01:04:43;;;;;;;4.77;4.37;;;;;;;;;;5103938;28;20232;-79
2023/06/20 01:07:14;;;;;;;5.37;4.47;;;;;;;;;;5114317;28;20200;-80
2023/06/20 01:09:47;;;;;;;4.47;4.07;;;;;;;;;;5101251;28;20207;-80
2023/06/20 01:12:20;;;;;;;5.57;3.83;;;;;;;;;;5105242;28;20740;-80
2023/06/20 01:14:53;;;;;;;4.57;4.17;;;;;;;;;;5110692;28;20206;-80
2023/06/20 01:17:24;;;;;;;5.50;4.63;;;;;;;;;;5103571;28;20683;-80
2023/06/20 01:20:07;;;;;;;5.87;4.77;;;;;;;;;;5107377;28;20239;-80
2023/06/20 01:22:44;;;;;;;7.13;4.33;;;;;;;;;;5108001;28;20698;-80
2023/06/20 01:25:14;;;;;;;5.83;5.13;;;;;;;;;;5105434;28;20621;-80
2023/06/20 01:27:49;;;;;;;5.17;4.60;;;;;;;;;;5109586;28;20256;-80
2023/06/20 01:30:22;;;;;;;8.63;5.20;;;;;;;;;;5103997;28;20290;-80
2023/06/20 01:32:50;;;;;;;8.03;5.10;;;;;;;;;;5093814;28;20200;-80
2023/06/20 01:35:19;;;;;;;7.90;5.43;;;;;;;;;;5105021;28;20210;-80
2023/06/20 01:37:51;;;;;;;5.07;4.67;;;;;;;;;;5108770;28;20287;-80
2023/06/20 01:40:19;;;;;;;6.20;4.57;;;;;;;;;;5106684;28;20751;-80
2023/06/20 01:42:46;;;;;;;5.07;4.57;;;;;;;;;;5094028;28;20205;-80
2023/06/20 01:45:13;;;;;;;5.17;4.67;;;;;;;;;;5093780;28;20636;-80
2023/06/20 01:47:41;;;;;;;5.77;5.27;;;;;;;;;;5100661;28;20210;-80
2023/06/20 01:50:09;;;;;;;8.73;4.97;;;;;;;;;;5112791;28;20227;-80
2023/06/20 01:52:36;;;;;;;5.07;4.67;;;;;;;;;;5093582;28;20204;-80
2023/06/20 01:55:06;;;;;;;5.13;4.70;;;;;;;;;;5094919;28;20249;-80
2023/06/20 01:57:34;;;;;;;6.87;4.60;;;;;;;;;;5113645;28;20209;-80
2023/06/20 02:00:10;;;;;;;5.83;5.23;;;;;;;;;;5110806;28;20231;-80
2023/06/20 02:02:38;;;;;;;6.27;4.67;;;;;;;;;;5103780;28;20195;-80
2023/06/20 02:05:06;;;;;;;7.90;5.23;;;;;;;;;;5095644;28;20193;-80
2023/06/20 02:07:33;;;;;;;6.37;5.83;;;;;;;;;;5104041;28;20199;-80
2023/06/20 02:10:01;;;;;;;7.40;4.97;;;;;;;;;;5113189;28;20195;-80
2023/06/20 02:12:29;;;;;;;5.27;4.77;;;;;;;;;;5101965;28;20208;-79
2023/06/20 02:14:57;;;;;;;7.53;5.30;;;;;;;;;;5111401;28;20207;-80
2023/06/20 02:17:25;;;;;;;5.93;5.20;;;;;;;;;;5112372;28;20204;-81
2023/06/20 02:19:52;;;;;;;6.50;5.20;;;;;;;;;;5099274;28;20223;-80
2023/06/20 02:22:19;;;;;;;5.23;4.80;;;;;;;;;;5101127;28;20227;-80
2023/06/20 02:24:48;;;;;;;4.73;4.33;;;;;;;;;;5111423;28;20207;-80
2023/06/20 02:27:16;;;;;;;10.70;5.53;;;;;;;;;;5113344;28;20290;-80
2023/06/20 02:29:46;;;;;;;10.13;5.67;;;;;;;;;;5099345;28;20204;-80
2023/06/20 02:32:13;;;;;;;7.10;5.27;;;;;;;;;;5099356;28;20203;-80
2023/06/20 02:34:43;;;;;;;8.03;4.73;;;;;;;;;;5092615;28;20224;-80
2023/06/20 02:37:10;;;;;;;5.40;4.90;;;;;;;;;;5092891;28;20220;-81
2023/06/20 02:39:37;;;;;;;5.70;5.20;;;;;;;;;;5105603;28;20231;-81
2023/06/20 02:42:04;;;;;;;5.87;5.27;;;;;;;;;;5092751;28;20215;-82
2023/06/20 02:44:31;;;;;;;6.47;5.57;;;;;;;;;;5113059;28;20203;-82
2023/06/20 02:47:04;;;;;;;5.77;5.17;;;;;;;;;;5111224;28;20200;-82
2023/06/20 02:49:38;;;;;;;5.10;4.70;;;;;;;;;;5101204;28;20207;-81
2023/06/20 02:52:09;;;;;;;4.97;4.57;;;;;;;;;;5098713;28;20211;-81
2023/06/20 02:54:40;;;;;;;6.83;5.17;;;;;;;;;;5112585;28;20610;-81
2023/06/20 02:57:11;;;;;;;5.77;4.27;;;;;;;;;;5112413;28;20206;-81
2023/06/20 02:59:39;;;;;;;5.07;4.57;;;;;;;;;;5112258;28;20309;-81
2023/06/20 03:02:11;;;;;;;5.90;5.20;;;;;;;;;;5112073;28;20196;-81
2023/06/20 03:04:38;;;;;;;7.43;4.50;;;;;;;;;;5112596;28;20199;-81
2023/06/20 03:07:07;;;;;;;5.00;4.57;;;;;;;;;;5105071;28;20199;-81
2023/06/20 03:09:34;;;;;;;5.37;4.40;;;;;;;;;;5092524;28;20208;-81
2023/06/20 03:12:01;;;;;;;6.83;5.40;;;;;;;;;;5112462;28;20195;-81
2023/06/20 03:14:28;;;;;;;6.20;5.63;;;;;;;;;;5111650;28;20206;-82
2023/06/20 03:16:55;;;;;;;5.43;4.93;;;;;;;;;;5099046;28;20665;-82
2023/06/20 03:19:23;;;;;;;6.53;5.70;;;;;;;;;;5110044;28;20207;-80
2023/06/20 03:21:50;;;;;;;8.30;5.37;;;;;;;;;;5110523;28;20199;-79
2023/06/20 03:24:17;;;;;;;5.43;4.93;;;;;;;;;;5111845;28;20627;-79
2023/06/20 03:26:43;;;;;;;13.10;5.23;;;;;;;;;;5112041;28;20239;-79
2023/06/20 03:29:10;;;;;;;5.47;4.97;;;;;;;;;;5111027;28;20200;-79
2023/06/20 03:31:37;;;;;;;5.77;5.27;;;;;;;;;;5091018;28;20211;-80
2023/06/20 03:34:04;;;;;;;6.07;4.83;;;;;;;;;;5103556;28;20214;-80
2023/06/20 03:36:32;;;;;;;5.30;4.80;;;;;;;;;;5097591;28;20207;-80
2023/06/20 03:38:58;;;;;;;5.57;5.10;;;;;;;;;;5110144;28;20207;-80
2023/06/20 03:41:25;;;;;;;5.50;5.00;;;;;;;;;;5089838;28;20284;-80
2023/06/20 03:43:52;;;;;;;6.20;5.47;;;;;;;;;;5091417;28;20641;-79
2023/06/20 03:46:19;;;;;;;5.40;4.83;;;;;;;;;;5111390;28;20230;-80
2023/06/20 03:48:45;;;;;;;6.03;5.37;;;;;;;;;;5111267;28;20206;-80
2023/06/20 03:51:12;;;;;;;5.17;4.63;;;;;;;;;;5111867;28;21147;-80
2023/06/20 03:53:40;;;;;;;4.97;4.57;;;;;;;;;;5095805;28;20211;-80
2023/06/20 03:56:07;;;;;;;4.83;4.43;;;;;;;;;;5100037;28;20202;-80
2023/06/20 03:58:34;;;;;;;6.33;4.83;;;;;;;;;;5097982;28;20204;-80
2023/06/20 04:01:01;;;;;;;5.17;4.77;;;;;;;;;;5102081;28;20224;-79
2023/06/20 04:03:28;;;;;;;10.07;5.43;;;;;;;;;;5104359;28;20296;-77
2023/06/20 04:06:00;;;;;;;4.63;4.23;;;;;;;;;;5101282;28;20213;-78
2023/06/20 04:08:27;;;;;;;6.67;5.27;;;;;;;;;;5097289;28;20207;-78
2023/06/20 04:10:55;;;;;;;5.57;4.73;;;;;;;;;;5110926;28;20203;-78
2023/06/20 04:13:22;;;;;;;5.33;4.37;;;;;;;;;;5110676;28;20290;-78
2023/06/20 04:15:49;;;;;;;5.90;5.10;;;;;;;;;;5099450;28;20208;-78
2023/06/20 04:18:16;;;;;;;6.80;4.60;;;;;;;;;;5109194;28;20286;-78
2023/06/20 04:20:43;;;;;;;6.73;5.17;;;;;;;;;;5111041;28;20227;-78
2023/06/20 04:23:10;;;;;;;5.70;5.17;;;;;;;;;;5111087;28;20204;-78
2023/06/20 04:25:36;;;;;;;8.73;5.13;;;;;;;;;;5111222;28;20208;-78
2023/06/20 04:28:05;;;;;;;7.63;6.13;;;;;;;;;;5097256;28;20196;-78
2023/06/20 04:30:32;;;;;;;6.20;5.70;;;;;;;;;;5110858;28;20211;-78
2023/06/20 04:32:59;;;;;;;6.27;5.63;;;;;;;;;;5104514;28;20200;-78
2023/06/20 04:35:26;;;;;;;8.90;6.03;;;;;;;;;;5090618;28;20576;-78
2023/06/20 04:37:52;;;;;;;5.47;4.97;;;;;;;;;;5103994;28;20201;-79
2023/06/20 04:40:20;;;;;;;5.93;5.33;;;;;;;;;;5104793;28;20227;-78
2023/06/20 04:42:46;;;;;;;7.20;6.50;;;;;;;;;;5101651;28;20204;-78
2023/06/20 04:45:15;;;;;;;8.07;6.23;;;;;;;;;;5101650;28;20203;-78
2023/06/20 04:47:42;;;;;;;6.80;5.37;;;;;;;;;;5114950;28;20290;-78
2023/06/20 04:50:09;;;;;;;6.50;5.87;;;;;;;;;;5100975;28;20236;-78
2023/06/20 04:52:36;;;;;;;7.70;6.23;;;;;;;;;;5114608;28;20207;-78
2023/06/20 04:55:03;;;;;;;5.50;5.00;;;;;;;;;;5101442;28;20209;-78
2023/06/20 04:57:30;;;;;;;5.83;5.30;;;;;;;;;;5114569;28;20207;-78
2023/06/20 04:59:57;;;;;;;5.53;4.93;;;;;;;;;;5100624;28;20269;-78
2023/06/20 05:02:25;;;;;;;6.33;5.20;;;;;;;;;;5106389;28;20196;-78
2023/06/20 05:04:52;;;;;;;7.47;5.23;;;;;;;;;;5107852;28;20234;-78
2023/06/20 05:07:21;;;;;;;5.70;5.20;;;;;;;;;;5103475;28;20200;-77
2023/06/20 05:09:48;;;;;;;5.70;5.20;;;;;;;;;;5111049;28;20199;-78
2023/06/20 05:12:15;;;;;;;6.03;5.53;;;;;;;;;;5103818;28;20257;-78
2023/06/20 05:14:43;;;;;;;5.60;5.13;;;;;;;;;;5111140;28;20203;-78
2023/06/20 05:17:10;;;;;;;5.80;5.10;;;;;;;;;;5103128;28;20290;-78
2023/06/20 05:19:38;;;;;;;7.00;4.37;;;;;;;;;;5100333;28;20207;-78
2023/06/20 05:22:05;;;;;;;5.87;4.80;;;;;;;;;;5104497;28;20228;-78
2023/06/20 05:24:32;;;;;;;6.03;5.50;;;;;;;;;;5107355;28;20642;-78
2023/06/20 05:26:58;;;;;;;6.10;4.93;;;;;;;;;;5103808;28;20582;-78
2023/06/20 05:29:25;;;;;;;8.20;5.27;;;;;;;;;;5096901;28;20197;-78
2023/06/20 05:31:52;;;;;;;8.17;5.83;;;;;;;;;;5104136;28;20647;-78
2023/06/20 05:34:19;;;;;;;5.70;4.93;;;;;;;;;;5113915;28;20206;-78
2023/06/20 05:36:47;;;;;;;11.43;5.97;;;;;;;;;;5103556;28;20200;-78
2023/06/20 05:39:14;;;;;;;7.70;5.37;;;;;;;;;;5093254;28;20204;-78
2023/06/20 05:41:42;;;;;;;7.33;4.60;;;;;;;;;;5093236;28;20722;-78
2023/06/20 05:44:09;;;;;;;5.17;4.73;;;;;;;;;;5112160;28;20288;-78
2023/06/20 05:46:35;;;;;;;7.43;5.90;;;;;;;;;;5101956;28;20200;-78
2023/06/20 05:49:03;;;;;;;5.83;5.10;;;;;;;;;;5106798;28;20196;-78
2023/06/20 05:51:30;;;;;;;5.90;5.17;;;;;;;;;;5105689;28;20255;-78
2023/06/20 05:53:59;;;;;;;5.77;4.83;;;;;;;;;;5099467;28;20192;-78
2023/06/20 05:56:26;;;;;;;5.43;4.93;;;;;;;;;;5113997;28;20203;-78
2023/06/20 05:58:54;;;;;;;5.20;4.70;;;;;;;;;;5093480;28;20200;-79
2023/06/20 06:01:21;;;;;;;5.53;4.50;;;;;;;;;;5106594;28;20234;-78
2023/06/20 06:03:48;;;;;;;5.00;4.30;;;;;;;;;;5100235;28;20697;-78
2023/06/20 06:06:15;;;;;;;5.00;4.60;;;;;;;;;;5113403;28;20223;-78
2023/06/20 06:08:42;;;;;;;5.53;5.00;;;;;;;;;;5113061;28;20195;-78
2023/06/20 06:11:13;;;;;;;5.00;4.60;;;;;;;;;;5099290;28;20203;-78
2023/06/20 06:13:40;;;;;;;5.80;5.30;;;;;;;;;;5104669;28;20728;-78
2023/06/20 06:16:06;;;;;;;5.40;4.93;;;;;;;;;;5093125;28;20214;-78
2023/06/20 06:18:33;;;;;;;5.77;4.57;;;;;;;;;;5092807;28;20235;-78
2023/06/20 06:21:00;;;;;;;4.67;4.23;;;;;;;;;;5092414;28;20285;-78
2023/06/20 06:23:27;;;;;;;4.80;4.30;;;;;;;;;;5100996;28;20199;-78
2023/06/20 06:25:54;;;;;;;5.37;4.97;;;;;;;;;;5097616;28;20204;-78
2023/06/20 06:28:23;;;;;;;5.40;4.90;;;;;;;;;;5101760;28;20199;-78
2023/06/20 06:30:50;;;;;;;5.87;4.10;;;;;;;;;;5099559;28;20223;-78
2023/06/20 06:33:19;;;;;;;4.90;4.50;;;;;;;;;;5103204;28;20211;-78
2023/06/20 06:35:46;;;;;;;9.20;5.10;;;;;;;;;;5109048;28;20192;-78
2023/06/20 06:38:13;;;;;;;4.93;4.53;;;;;;;;;;5102686;28;20208;-78
2023/06/20 06:40:40;;;;;;;4.53;4.13;;;;;;;;;;5092187;28;20218;-77
2023/06/20 06:43:07;;;;;;;6.63;4.67;;;;;;;;;;5102919;28;20200;-78
2023/06/20 06:45:37;;;;;;;6.10;4.17;;;;;;;;;;5112443;28;20244;-78
2023/06/20 06:48:04;;;;;;;5.40;4.83;;;;;;;;;;5101315;28;20220;-78
2023/06/20 06:50:31;;;;;;;4.50;4.10;;;;;;;;;;5092148;28;20220;-78
2023/06/20 06:52:57;;;;;;;6.00;4.77;;;;;;;;;;5092384;28;20230;-77
2023/06/20 06:55:24;;;;;;;8.57;4.67;;;;;;;;;;5096911;28;20207;-78
2023/06/20 06:57:51;;;;;;;6.50;5.17;;;;;;;;;;5112366;28;20196;-78
2023/06/20 07:00:19;;;;;;;4.80;4.40;;;;;;;;;;5112192;28;20674;-78
2023/06/20 07:02:47;;;;;;;8.93;4.43;;;;;;;;;;5112109;28;20211;-77
2023/06/20 07:05:14;;;;;;;4.80;4.40;;;;;;;;;;5098209;28;20204;-77
2023/06/20 07:07:40;;;;;;;5.10;4.33;;;;;;;;;;5112134;28;20256;-77
2023/06/20 07:10:11;;;;;;;6.83;4.53;;;;;;;;;;5092717;28;20192;-77
2023/06/20 07:12:37;;;;;;;6.80;5.23;;;;;;;;;;5091390;28;20283;-77
2023/06/20 07:15:05;;;;;;;5.60;4.63;;;;;;;;;;5092760;28;20720;-77
2023/06/20 07:17:35;;;;;;;5.37;4.53;;;;;;;;;;5091981;28;20197;-77
2023/06/20 07:20:08;;;;;;;4.77;4.33;;;;;;;;;;5097934;28;20203;-77
2023/06/20 07:22:35;;;;;;;5.53;5.03;;;;;;;;;;5097277;28;20382;-77
2023/06/20 07:25:02;;;;;;;5.50;5.00;;;;;;;;;;5099255;28;20196;-77
2023/06/20 07:27:28;;;;;;;5.30;4.63;;;;;;;;;;5098162;28;20234;-77
2023/06/20 07:29:55;;;;;;;5.77;5.27;;;;;;;;;;5104056;28;20253;-77
2023/06/20 07:32:22;;;;;;;5.83;5.27;;;;;;;;;;5091340;28;20674;-77
2023/06/20 07:34:49;;;;;;;5.63;5.13;;;;;;;;;;5099804;28;20203;-77
2023/06/20 07:37:17;;;;;;;8.17;6.20;;;;;;;;;;5111253;28;20206;-77
2023/06/20 07:39:46;;;;;;;6.73;6.13;;;;;;;;;;5111126;28;20207;-77
2023/06/20 07:42:13;;;;;;;7.30;6.03;;;;;;;;;;5097498;28;20228;-77
2023/06/20 07:44:40;;;;;;;9.10;7.07;;;;;;;;;;5102579;28;20261;-77
2023/06/20 07:47:07;;;;;;;9.80;7.40;;;;;;;;;;5093642;28;20250;-77
2023/06/20 07:49:34;;;;;;;11.63;8.17;;;;;;;;;;5101254;28;20236;-77
2023/06/20 07:52:01;;;;;;;7.00;5.70;;;;;;;;;;5107519;28;20214;-77
2023/06/20 07:54:29;;;;;;;9.20;7.13;;;;;;;;;;5111749;28;20212;-77
2023/06/20 07:56:56;;;;;;;7.20;6.60;;;;;;;;;;5097316;28;20196;-77
2023/06/20 07:59:23;;;;;;;7.60;6.90;;;;;;;;;;5101012;28;20693;-77
2023/06/20 08:01:49;;;;;;;8.73;7.47;;;;;;;;;;5094734;28;20219;-77
2023/06/20 08:04:19;;;;;;;8.70;7.57;;;;;;;;;;5100785;28;20258;-77
2023/06/20 08:06:46;;;;;;;8.07;6.10;;;;;;;;;;5090984;28;20196;-77
2023/06/20 08:09:12;;;;;;;9.70;7.10;;;;;;;;;;5102184;28;20196;-76
2023/06/20 08:11:41;;;;;;;8.60;6.93;;;;;;;;;;5106070;28;20200;-77
2023/06/20 08:14:12;;;;;;;10.00;7.10;;;;;;;;;;5091262;28;20722;-77
2023/06/20 08:16:39;;;;;;;15.83;8.70;;;;;;;;;;5095870;28;20682;-76
2023/06/20 08:19:07;;;;;;;11.10;9.07;;;;;;;;;;5098587;28;20204;-77
2023/06/20 08:21:34;;;;;;;16.80;10.13;;;;;;;;;;5104355;28;20227;-77
2023/06/20 08:24:01;;;;;;;17.23;10.07;;;;;;;;;;5103582;28;20675;-77
2023/06/20 08:26:27;;;;;;;13.97;10.27;;;;;;;;;;5090653;28;20204;-77
2023/06/20 08:28:56;;;;;;;9.00;7.33;;;;;;;;;;5104034;28;20192;-77
2023/06/20 08:31:22;;;;;;;7.53;6.57;;;;;;;;;;5090556;28;20628;-77
2023/06/20 08:33:49;;;;;;;8.40;6.97;;;;;;;;;;5104047;28;20249;-77
2023/06/20 08:36:16;;;;;;;7.60;6.90;;;;;;;;;;5096897;28;20886;-77
2023/06/20 08:38:42;;;;;;;7.73;7.03;;;;;;;;;;5110909;28;20335;-76
2023/06/20 08:41:10;;;;;;;8.07;7.27;;;;;;;;;;5110824;28;20200;-76
2023/06/20 08:43:36;;;;;;;9.13;8.00;;;;;;;;;;5097012;28;20285;-76
2023/06/20 08:46:04;;;;;;;11.10;7.57;;;;;;;;;;5090706;28;20193;-77
2023/06/20 08:48:31;;;;;;;9.27;8.07;;;;;;;;;;5091082;28;20265;-76
2023/06/20 08:50:58;;;;;;;8.13;7.43;;;;;;;;;;5103324;28;20220;-76
2023/06/20 08:53:25;;;;;;;12.57;8.87;;;;;;;;;;5104667;28;20202;-77
2023/06/20 08:55:53;;;;;;;8.33;7.40;;;;;;;;;;5103084;28;20212;-76
2023/06/20 08:58:19;;;;;;;8.93;8.13;;;;;;;;;;5091136;28;20212;-76
2023/06/20 09:00:48;;;;;;;8.37;7.50;;;;;;;;;;5110913;28;20635;-76
2023/06/20 09:03:16;;;;;;;8.97;8.03;;;;;;;;;;5110480;28;20223;-76
2023/06/20 09:05:45;;;;;;;9.57;8.57;;;;;;;;;;5110546;28;20750;-76
2023/06/20 09:08:14;;;;;;;7.65;6.97;;;;;;;;;;5110412;28;20200;-76
2023/06/20 09:10:41;;;;;;;9.43;7.93;;;;;;;;;;5101140;28;20200;-76
2023/06/20 09:13:11;;;;;;;10.80;8.50;;;;;;;;;;5106165;28;20253;-76
2023/06/20 09:15:38;;;;;;;8.27;7.47;;;;;;;;;;5100483;28;20196;-76
2023/06/20 09:18:07;;;;;;;9.07;8.13;;;;;;;;;;5103832;28;20286;-76
2023/06/20 09:20:35;;;;;;;11.38;10.18;;;;;;;;;;5101367;28;20204;-76
2023/06/20 09:23:03;;;;;;;7.95;7.25;;;;;;;;;;5092101;28;20220;-76
2023/06/20 09:25:30;;;;;;;8.87;7.53;;;;;;;;;;5090034;28;20675;-76
2023/06/20 09:27:57;;;;;;;6.55;5.95;;;;;;;;;;5104834;28;20228;-76
2023/06/20 09:30:29;;;;;;;9.68;8.40;;;;;;;;;;5094200;28;20208;-77
2023/06/20 09:32:56;;;;;;;8.68;6.40;;;;;;;;;;5099192;28;20196;-76
2023/06/20 09:35:23;;;;;;;7.13;6.55;;;;;;;;;;5113966;28;20207;-76
2023/06/20 09:37:52;;;;;;;7.15;6.55;;;;;;;;;;5100615;28;20202;-76
2023/06/20 09:40:21;;;;;;;7.05;6.18;;;;;;;;;;5100487;28;20207;-76
2023/06/20 09:42:48;;;;;;;7.20;6.50;;;;;;;;;;5093066;28;20235;-76
2023/06/20 09:45:16;;;;;;;7.68;6.45;;;;;;;;;;5107799;28;20675;-77
2023/06/20 09:47:44;;;;;;;9.27;7.07;;;;;;;;;;5113590;28;20200;-76
2023/06/20 09:50:15;;;;;;;7.60;7.00;;;;;;;;;;5112739;28;20238;-77
2023/06/20 09:52:45;;;;;;;7.82;7.13;;;;;;;;;;5101979;28;20208;-76
2023/06/20 09:55:14;;;;;;;7.60;6.90;;;;;;;;;;5099887;28;20204;-76
2023/06/20 09:57:42;;;;;;;7.15;6.53;;;;;;;;;;5103853;28;20196;-76
2023/06/20 10:00:14;;;;;;;7.15;6.50;;;;;;;;;;5096439;28;20282;-76
2023/06/20 10:02:45;;;;;;;6.55;5.75;;;;;;;;;;5102823;28;20220;-76
2023/06/20 10:05:13;;;;;;;7.50;6.80;;;;;;;;;;5097873;28;20286;-76
2023/06/20 10:07:41;;;;;;;6.90;6.30;;;;;;;;;;5101226;28;20257;-76
2023/06/20 10:10:11;;;;;;;6.43;5.93;;;;;;;;;;5112140;28;20200;-76
2023/06/20 10:12:40;;;;;;;6.20;5.50;;;;;;;;;;5113656;28;20235;-76
2023/06/20 10:15:08;;;;;;;7.28;6.35;;;;;;;;;;5106119;28;20200;-77
2023/06/20 10:17:39;;;;;;;7.93;5.43;;;;;;;;;;5105886;28;20199;-76
2023/06/20 10:20:08;;;;;;;7.53;6.80;;;;;;;;;;5105922;28;20232;-77
2023/06/20 10:22:36;;;;;;;7.75;7.07;;;;;;;;;;5106257;28;20216;-76
2023/06/20 10:25:12;;;;;;;7.20;5.45;;;;;;;;;;5100309;28;20673;-76
2023/06/20 10:27:44;;;;;;;5.45;4.95;;;;;;;;;;5110131;28;20268;-77
2023/06/20 10:30:13;;;;;;;4.88;4.50;;;;;;;;;;5102746;28;20195;-77
2023/06/20 10:33:07;;;;;;;5.65;5.25;;;;;;;;;;5099439;28;20199;-76
2023/06/20 10:35:34;;;;;;;5.00;4.60;;;;;;;;;;5098247;28;20283;-77
2023/06/20 10:38:07;;;;;;;5.95;5.35;;;;;;;;;;5100160;28;20206;-76
2023/06/20 10:40:36;;;;;;;9.95;5.13;;;;;;;;;;5099082;28;20236;-76
2023/06/20 10:43:08;;;;;;;7.05;5.68;;;;;;;;;;5112160;28;20890;-77
2023/06/20 10:45:35;;;;;;;4.88;4.47;;;;;;;;;;5099047;28;20286;-76
2023/06/20 10:48:03;;;;;;;4.63;4.22;;;;;;;;;;5101598;28;20205;-76
2023/06/20 10:50:30;;;;;;;5.18;4.72;;;;;;;;;;5096268;28;20230;-76
2023/06/20 10:53:00;;;;;;;4.43;4.13;;;;;;;;;;5101907;28;20261;-76
2023/06/20 10:55:27;;;;;;;5.67;5.23;;;;;;;;;;5096776;28;20252;-76
2023/06/20 10:57:55;;;;;;;5.38;4.88;;;;;;;;;;5100441;28;20748;-76
2023/06/20 11:00:24;;;;;;;6.37;4.57;;;;;;;;;;5097352;28;20257;-76
2023/06/20 11:02:52;;;;;;;5.03;4.37;;;;;;;;;;5099571;28;20228;-76
2023/06/20 11:05:19;;;;;;;5.83;5.07;;;;;;;;;;5105272;28;20751;-77
2023/06/20 11:07:57;;;;;;;5.50;4.70;;;;;;;;;;5104573;28;20717;-77
2023/06/20 11:10:28;;;;;;;6.07;5.30;;;;;;;;;;5091788;28;20203;-79
2023/06/20 11:12:56;;;;;;;5.90;4.43;;;;;;;;;;5106996;28;20199;-78
2023/06/20 11:15:26;;;;;;;9.77;5.27;;;;;;;;;;5104170;28;20574;-79
2023/06/20 11:17:52;;;;;;;7.53;5.93;;;;;;;;;;5105034;28;20260;-79
2023/06/20 11:20:21;;;;;;;4.37;4.07;;;;;;;;;;5092006;28;20201;-79
2023/06/20 11:22:49;;;;;;;4.17;3.77;;;;;;;;;;5104970;28;20284;-79
2023/06/20 11:25:27;;;;;;;8.00;4.90;;;;;;;;;;5091648;28;20208;-79
2023/06/20 11:27:54;;;;;;;7.80;6.40;;;;;;;;;;5105370;28;20563;-79
2023/06/20 11:30:30;;;;;;;5.40;4.90;;;;;;;;;;5102735;28;20208;-79
2023/06/20 11:33:01;;;;;;;6.17;5.67;;;;;;;;;;5098012;28;20272;-79
2023/06/20 11:35:46;;;;;;;7.80;5.93;;;;;;;;;;5098375;28;20200;-79
2023/06/20 11:38:14;;;;;;;4.00;3.60;;;;;;;;;;5091528;28;20219;-79
2023/06/20 11:40:41;;;;;;;4.50;4.07;;;;;;;;;;5091229;28;20201;-79
2023/06/20 11:43:19;;;;;;;4.00;3.70;;;;;;;;;;5100249;28;20227;-79
2023/06/20 11:45:47;;;;;;;4.10;3.70;;;;;;;;;;5111586;28;20207;-79
2023/06/20 11:48:15;;;;;;;3.87;3.53;;;;;;;;;;5099899;28;20647;-79
2023/06/20 11:50:44;;;;;;;4.93;4.33;;;;;;;;;;5095398;28;20227;-79
2023/06/20 11:53:19;;;;;;;6.10;4.57;;;;;;;;;;5111706;28;20272;-79
2023/06/20 11:55:50;;;;;;;4.83;4.43;;;;;;;;;;5111510;28;20199;-79
2023/06/20 11:58:17;;;;;;;4.87;4.33;;;;;;;;;;5097673;28;20207;-79
2023/06/20 12:00:47;;;;;;;4.23;3.93;;;;;;;;;;5111124;28;20581;-79
2023/06/20 12:03:21;;;;;;;4.77;4.20;;;;;;;;;;5110800;28;20227;-79
2023/06/20 12:05:48;;;;;;;4.20;3.90;;;;;;;;;;5102608;28;20242;-79
2023/06/20 12:08:15;;;;;;;3.60;3.30;;;;;;;;;;5104529;28;20210;-79
2023/06/20 12:10:48;;;;;;;4.57;4.03;;;;;;;;;;5100925;28;20265;-79
2023/06/20 12:13:16;;;;;;;4.37;4.07;;;;;;;;;;5097448;28;20195;-79
2023/06/20 12:15:45;;;;;;;4.43;4.13;;;;;;;;;;5111380;28;20199;-79
2023/06/20 12:18:12;;;;;;;4.53;4.07;;;;;;;;;;5110959;28;20196;-79
2023/06/20 12:20:41;;;;;;;4.03;3.70;;;;;;;;;;5111053;28;20286;-79
2023/06/20 12:23:10;;;;;;;4.07;3.50;;;;;;;;;;5092152;28;20587;-79
2023/06/20 12:25:37;;;;;;;3.50;3.30;;;;;;;;;;5103406;28;20587;-79
2023/06/20 12:28:04;;;;;;;4.33;3.83;;;;;;;;;;5097695;28;20291;-79
2023/06/20 12:30:31;;;;;;;4.00;3.57;;;;;;;;;;5098233;28;20208;-80
2023/06/20 12:32:58;;;;;;;4.80;4.23;;;;;;;;;;5104119;28;20200;-79
2023/06/20 12:35:25;;;;;;;4.70;4.30;;;;;;;;;;5090784;28;20684;-79
2023/06/20 12:37:54;;;;;;;4.37;3.97;;;;;;;;;;5097728;28;20709;-79
2023/06/20 12:40:20;;;;;;;5.23;4.83;;;;;;;;;;5097207;28;20337;-79
2023/06/20 12:42:47;;;;;;;4.70;4.30;;;;;;;;;;5110475;28;20226;-78
2023/06/20 12:45:14;;;;;;;5.73;5.23;;;;;;;;;;5110045;28;20195;-79
2023/06/20 12:47:41;;;;;;;4.40;4.10;;;;;;;;;;5097506;28;20196;-79
2023/06/20 12:50:09;;;;;;;5.53;5.10;;;;;;;;;;5110074;28;20637;-79
2023/06/20 12:52:36;;;;;;;5.17;4.67;;;;;;;;;;5098511;28;20230;-79
2023/06/20 12:55:08;;;;;;;5.37;4.63;;;;;;;;;;5096430;28;20764;-78
2023/06/20 12:57:35;;;;;;;5.67;4.93;;;;;;;;;;5102232;28;20196;-79
2023/06/20 13:00:04;;;;;;;5.50;5.00;;;;;;;;;;5092304;28;20713;-79
2023/06/20 13:02:33;;;;;;;6.87;5.07;;;;;;;;;;5103532;28;20585;-79
2023/06/20 13:05:03;;;;;;;5.20;4.80;;;;;;;;;;5097403;28;20698;-78
2023/06/20 13:07:30;;;;;;;5.70;5.30;;;;;;;;;;5104549;28;20200;-78
2023/06/20 13:09:58;;;;;;;7.67;4.77;;;;;;;;;;5098010;28;20714;-78
2023/06/20 13:12:31;;;;;;;8.80;5.13;;;;;;;;;;5103421;28;20208;-79
2023/06/20 13:14:58;;;;;;;5.40;4.90;;;;;;;;;;5099201;28;20674;-79
2023/06/20 13:17:25;;;;;;;6.00;5.43;;;;;;;;;;5113991;28;20581;-79
2023/06/20 13:19:51;;;;;;;6.10;5.50;;;;;;;;;;5096041;28;20360;-79
2023/06/20 13:22:18;;;;;;;5.40;4.97;;;;;;;;;;5105790;28;20215;-79
2023/06/20 13:24:45;;;;;;;5.60;5.10;;;;;;;;;;5095056;28;20694;-79
2023/06/20 13:27:12;;;;;;;8.80;7.13;;;;;;;;;;5106406;28;20200;-79
2023/06/20 13:29:40;;;;;;;7.03;6.40;;;;;;;;;;5100526;28;20219;-79
2023/06/20 13:32:08;;;;;;;5.67;5.17;;;;;;;;;;5113469;28;20218;-79
2023/06/20 13:34:35;;;;;;;5.70;4.97;;;;;;;;;;5101043;28;20315;-79
2023/06/20 13:37:01;;;;;;;5.37;4.97;;;;;;;;;;5101221;28;20209;-79
2023/06/20 13:39:30;;;;;;;6.10;5.60;;;;;;;;;;5107486;28;20211;-79
2023/06/20 13:41:58;;;;;;;5.83;5.33;;;;;;;;;;5093287;28;20204;-77
2023/06/20 13:44:25;;;;;;;5.57;5.17;;;;;;;;;;5093765;28;20289;-79
2023/06/20 13:46:53;;;;;;;5.20;4.80;;;;;;;;;;5093430;28;20646;-79
2023/06/20 13:49:20;;;;;;;5.33;4.93;;;;;;;;;;5093648;28;20269;-79
2023/06/20 13:51:47;;;;;;;4.70;4.30;;;;;;;;;;5106692;28;20227;-79
2023/06/20 13:54:14;;;;;;;4.13;3.60;;;;;;;;;;5101275;28;20196;-79
2023/06/20 13:56:41;;;;;;;4.43;4.03;;;;;;;;;;5112782;28;20206;-78
2023/06/20 13:59:10;;;;;;;4.77;3.90;;;;;;;;;;5093213;28;20283;-79
2023/06/20 14:01:39;;;;;;;4.87;4.47;;;;;;;;;;5107019;28;20203;-79
2023/06/20 14:04:07;;;;;;;4.63;4.30;;;;;;;;;;5093080;28;20219;-79
2023/06/20 14:06:35;;;;;;;4.10;3.70;;;;;;;;;;5095253;28;20204;-79
2023/06/20 14:09:04;;;;;;;4.13;3.73;;;;;;;;;;5113546;28;20596;-79
2023/06/20 14:11:31;;;;;;;4.27;3.97;;;;;;;;;;5110551;28;20216;-79
2023/06/20 14:13:58;;;;;;;4.33;3.93;;;;;;;;;;5092227;28;20208;-79
2023/06/20 14:16:25;;;;;;;4.40;4.00;;;;;;;;;;5109689;28;20619;-79
2023/06/20 14:18:51;;;;;;;4.53;4.13;;;;;;;;;;5103492;28;20558;-79
2023/06/20 14:21:20;;;;;;;4.20;3.90;;;;;;;;;;5096551;28;20646;-79
2023/06/20 14:23:46;;;;;;;4.50;3.93;;;;;;;;;;5113166;28;20220;-76
2023/06/20 14:26:15;;;;;;;3.97;3.67;;;;;;;;;;5108986;28;20192;-77
2023/06/20 14:28:43;;;;;;;4.87;4.47;;;;;;;;;;5103789;28;20195;-77
2023/06/20 14:31:10;;;;;;;5.17;4.57;;;;;;;;;;5112885;28;20196;-76
2023/06/20 14:33:37;;;;;;;4.17;3.80;;;;;;;;;;5101496;28;20209;-77
2023/06/20 14:36:05;;;;;;;4.23;3.93;;;;;;;;;;5110856;28;20762;-77
2023/06/20 14:38:33;;;;;;;4.17;3.87;;;;;;;;;;5112887;28;20568;-77
2023/06/20 14:40:59;;;;;;;4.20;3.90;;;;;;;;;;5107290;28;20253;-78
2023/06/20 14:43:26;;;;;;;4.03;3.63;;;;;;;;;;5104608;28;20230;-77
2023/06/20 14:45:53;;;;;;;8.53;3.77;;;;;;;;;;5093129;28;20594;-77
2023/06/20 14:48:20;;;;;;;4.37;3.73;;;;;;;;;;5091667;28;20589;-77